sensor_id;sensor_type;location;lat;lon;timestamp;pressure;altitude;pressure_sealevel;temperature;humidity
11343;BME280;5726;42.160;24.746;2023-05-11T00:02:12;100036.28;;;11.64;100.00
11343;BME280;5726;42.160;24.746;2023-05-11T00:04:38;100021.19;;;11.68;100.00
11343;BME280;5726;42.160;24.746;2023-05-11T00:07:03;100041.94;;;11.57;100.00
11343;BME280;5726;42.160;24.746;2023-05-11T00:09:30;100043.22;;;11.32;100.00
11343;BME280;5726;42.160;24.746;2023-05-11T00:11:56;100043.38;;;11.45;100.00
11343;BME280;5726;42.160;24.746;2023-05-11T00:14:21;100037.84;;;11.65;100.00
11343;BME280;5726;42.160;24.746;2023-05-11T00:16:47;100044.97;;;11.79;100.00
11343;BME280;5726;42.160;24.746;2023-05-11T00:19:12;100045.31;;;11.73;100.00
11343;BME280;5726;42.160;24.746;2023-05-11T00:21:38;100039.97;;;11.68;100.00
11343;BME280;5726;42.160;24.746;2023-05-11T00:24:03;100039.19;;;11.95;100.00
11343;BME280;5726;42.160;24.746;2023-05-11T00:26:29;100057.66;;;11.74;100.00
11343;BME280;5726;42.160;24.746;2023-05-11T00:28:55;100053.00;;;11.84;100.00
11343;BME280;5726;42.160;24.746;2023-05-11T00:31:20;100039.47;;;11.66;100.00
11343;BME280;5726;42.160;24.746;2023-05-11T00:33:45;100056.28;;;11.76;100.00
11343;BME280;5726;42.160;24.746;2023-05-11T00:36:11;100044.84;;;11.66;100.00
11343;BME280;5726;42.160;24.746;2023-05-11T00:38:36;100060.06;;;11.42;100.00
11343;BME280;5726;42.160;24.746;2023-05-11T00:41:05;100065.41;;;11.42;100.00
11343;BME280;5726;42.160;24.746;2023-05-11T00:43:31;100054.81;;;11.60;100.00
11343;BME280;5726;42.160;24.746;2023-05-11T00:45:56;100062.22;;;11.40;100.00
11343;BME280;5726;42.160;24.746;2023-05-11T00:48:21;100050.91;;;11.43;100.00
11343;BME280;5726;42.160;24.746;2023-05-11T00:50:47;100059.75;;;11.48;100.00
11343;BME280;5726;42.160;24.746;2023-05-11T00:53:13;100058.44;;;11.41;100.00
11343;BME280;5726;42.160;24.746;2023-05-11T00:55:39;100059.13;;;11.61;100.00
11343;BME280;5726;42.160;24.746;2023-05-11T00:58:04;100061.66;;;11.48;100.00
11343;BME280;5726;42.160;24.746;2023-05-11T01:00:30;100056.28;;;11.43;100.00
11343;BME280;5726;42.160;24.746;2023-05-11T01:02:56;100060.63;;;11.72;100.00
11343;BME280;5726;42.160;24.746;2023-05-11T01:05:30;100046.53;;;11.57;100.00
11343;BME280;5726;42.160;24.746;2023-05-11T01:08:12;100056.84;;;11.40;100.00
11343;BME280;5726;42.160;24.746;2023-05-11T01:11:14;100051.63;;;11.58;100.00
11343;BME280;5726;42.160;24.746;2023-05-11T01:14:31;100051.44;;;11.45;100.00
11343;BME280;5726;42.160;24.746;2023-05-11T01:16:34;100056.88;;;11.35;100.00
11343;BME280;5726;42.160;24.746;2023-05-11T01:19:10;100059.09;;;11.28;100.00
11343;BME280;5726;42.160;24.746;2023-05-11T01:21:38;100067.31;;;11.42;100.00
11343;BME280;5726;42.160;24.746;2023-05-11T01:32:27;100072.47;;;11.33;100.00
11343;BME280;5726;42.160;24.746;2023-05-11T01:35:03;100071.34;;;11.39;100.00
11343;BME280;5726;42.160;24.746;2023-05-11T01:37:31;100070.63;;;11.29;100.00
11343;BME280;5726;42.160;24.746;2023-05-11T01:40:00;100063.34;;;11.34;100.00
11343;BME280;5726;42.160;24.746;2023-05-11T01:42:35;100067.72;;;11.20;100.00
11343;BME280;5726;42.160;24.746;2023-05-11T01:45:05;100072.22;;;11.30;100.00
11343;BME280;5726;42.160;24.746;2023-05-11T01:47:33;100061.38;;;11.06;100.00
11343;BME280;5726;42.160;24.746;2023-05-11T01:50:00;100068.56;;;11.16;100.00
11343;BME280;5726;42.160;24.746;2023-05-11T01:52:29;100068.28;;;11.17;100.00
11343;BME280;5726;42.160;24.746;2023-05-11T01:54:57;100064.94;;;10.92;100.00
11343;BME280;5726;42.160;24.746;2023-05-11T01:57:24;100070.50;;;11.05;100.00
11343;BME280;5726;42.160;24.746;2023-05-11T01:59:52;100070.03;;;10.98;100.00
11343;BME280;5726;42.160;24.746;2023-05-11T02:02:18;100063.81;;;11.03;100.00
11343;BME280;5726;42.160;24.746;2023-05-11T02:04:44;100066.78;;;11.01;100.00
11343;BME280;5726;42.160;24.746;2023-05-11T02:07:12;100057.63;;;11.07;100.00
11343;BME280;5726;42.160;24.746;2023-05-11T02:09:39;100068.41;;;10.97;100.00
11343;BME280;5726;42.160;24.746;2023-05-11T02:12:06;100058.59;;;11.21;100.00
11343;BME280;5726;42.160;24.746;2023-05-11T02:14:33;100063.34;;;11.34;100.00
11343;BME280;5726;42.160;24.746;2023-05-11T02:17:02;100053.56;;;11.15;100.00
11343;BME280;5726;42.160;24.746;2023-05-11T02:19:33;100065.81;;;11.26;100.00
11343;BME280;5726;42.160;24.746;2023-05-11T02:22:01;100059.56;;;10.92;100.00
11343;BME280;5726;42.160;24.746;2023-05-11T02:24:29;100068.72;;;10.86;100.00
11343;BME280;5726;42.160;24.746;2023-05-11T02:26:55;100061.69;;;11.00;100.00
11343;BME280;5726;42.160;24.746;2023-05-11T02:29:20;100063.91;;;10.88;100.00
11343;BME280;5726;42.160;24.746;2023-05-11T02:31:48;100067.28;;;11.03;100.00
11343;BME280;5726;42.160;24.746;2023-05-11T02:34:24;100062.25;;;10.97;100.00
11343;BME280;5726;42.160;24.746;2023-05-11T02:36:58;100070.63;;;10.86;100.00
11343;BME280;5726;42.160;24.746;2023-05-11T02:39:30;100067.38;;;10.89;100.00
11343;BME280;5726;42.160;24.746;2023-05-11T02:41:57;100060.47;;;10.78;100.00
11343;BME280;5726;42.160;24.746;2023-05-11T02:44:29;100069.91;;;10.70;100.00
11343;BME280;5726;42.160;24.746;2023-05-11T02:46:56;100070.97;;;10.69;100.00
11343;BME280;5726;42.160;24.746;2023-05-11T02:49:28;100056.78;;;10.69;100.00
11343;BME280;5726;42.160;24.746;2023-05-11T02:51:56;100059.25;;;10.50;100.00
11343;BME280;5726;42.160;24.746;2023-05-11T02:54:23;100061.13;;;10.50;100.00
11343;BME280;5726;42.160;24.746;2023-05-11T02:56:50;100065.44;;;10.46;100.00
11343;BME280;5726;42.160;24.746;2023-05-11T02:59:16;100074.41;;;10.80;100.00
11343;BME280;5726;42.160;24.746;2023-05-11T03:01:42;100075.28;;;10.65;100.00
11343;BME280;5726;42.160;24.746;2023-05-11T03:04:07;100074.44;;;10.75;100.00
11343;BME280;5726;42.160;24.746;2023-05-11T03:06:34;100072.31;;;10.67;100.00
11343;BME280;5726;42.160;24.746;2023-05-11T03:09:00;100072.78;;;10.79;100.00
11343;BME280;5726;42.160;24.746;2023-05-11T03:11:26;100076.03;;;10.81;100.00
11343;BME280;5726;42.160;24.746;2023-05-11T03:13:52;100075.75;;;10.77;100.00
11343;BME280;5726;42.160;24.746;2023-05-11T03:16:18;100077.53;;;10.96;100.00
11343;BME280;5726;42.160;24.746;2023-05-11T03:18:46;100078.78;;;10.61;100.00
11343;BME280;5726;42.160;24.746;2023-05-11T03:21:15;100078.84;;;10.51;100.00
11343;BME280;5726;42.160;24.746;2023-05-11T03:23:44;100083.66;;;10.54;100.00
11343;BME280;5726;42.160;24.746;2023-05-11T03:26:10;100083.59;;;10.64;100.00
11343;BME280;5726;42.160;24.746;2023-05-11T03:28:37;100094.25;;;10.84;100.00
11343;BME280;5726;42.160;24.746;2023-05-11T03:31:04;100081.63;;;10.84;100.00
11343;BME280;5726;42.160;24.746;2023-05-11T03:33:30;100082.88;;;11.01;100.00
11343;BME280;5726;42.160;24.746;2023-05-11T03:35:57;100080.19;;;11.01;100.00
11343;BME280;5726;42.160;24.746;2023-05-11T03:38:24;100099.06;;;10.87;100.00
11343;BME280;5726;42.160;24.746;2023-05-11T03:40:53;100098.31;;;10.76;100.00
11343;BME280;5726;42.160;24.746;2023-05-11T03:43:20;100095.13;;;10.64;100.00
11343;BME280;5726;42.160;24.746;2023-05-11T03:45:48;100087.84;;;10.75;100.00
11343;BME280;5726;42.160;24.746;2023-05-11T03:48:15;100086.50;;;10.72;100.00
11343;BME280;5726;42.160;24.746;2023-05-11T03:50:42;100087.31;;;10.78;100.00
11343;BME280;5726;42.160;24.746;2023-05-11T03:53:08;100092.13;;;10.76;100.00
11343;BME280;5726;42.160;24.746;2023-05-11T03:55:34;100088.97;;;10.69;100.00
11343;BME280;5726;42.160;24.746;2023-05-11T03:57:59;100078.75;;;10.71;100.00
11343;BME280;5726;42.160;24.746;2023-05-11T04:00:25;100085.66;;;10.82;100.00
11343;BME280;5726;42.160;24.746;2023-05-11T04:02:51;100086.13;;;10.98;100.00
11343;BME280;5726;42.160;24.746;2023-05-11T04:05:16;100086.88;;;11.09;100.00
11343;BME280;5726;42.160;24.746;2023-05-11T04:07:43;100104.78;;;11.18;100.00
11343;BME280;5726;42.160;24.746;2023-05-11T04:10:08;100108.84;;;11.11;100.00
11343;BME280;5726;42.160;24.746;2023-05-11T04:12:33;100095.25;;;10.97;100.00
11343;BME280;5726;42.160;24.746;2023-05-11T04:14:59;100104.97;;;10.84;100.00
11343;BME280;5726;42.160;24.746;2023-05-11T04:17:24;100101.47;;;10.83;100.00
11343;BME280;5726;42.160;24.746;2023-05-11T04:19:50;100101.53;;;10.73;100.00
11343;BME280;5726;42.160;24.746;2023-05-11T04:22:16;100097.38;;;11.00;100.00
11343;BME280;5726;42.160;24.746;2023-05-11T04:24:41;100107.97;;;11.25;100.00
11343;BME280;5726;42.160;24.746;2023-05-11T04:27:07;100103.16;;;11.22;100.00
11343;BME280;5726;42.160;24.746;2023-05-11T04:29:32;100108.09;;;11.48;100.00
11343;BME280;5726;42.160;24.746;2023-05-11T04:31:58;100106.38;;;11.62;100.00
11343;BME280;5726;42.160;24.746;2023-05-11T04:34:23;100112.91;;;11.85;100.00
11343;BME280;5726;42.160;24.746;2023-05-11T04:36:49;100106.69;;;12.17;100.00
11343;BME280;5726;42.160;24.746;2023-05-11T04:39:15;100114.69;;;12.22;100.00
11343;BME280;5726;42.160;24.746;2023-05-11T04:41:44;100109.28;;;11.99;100.00
11343;BME280;5726;42.160;24.746;2023-05-11T04:44:10;100118.66;;;12.01;100.00
11343;BME280;5726;42.160;24.746;2023-05-11T04:46:36;100110.53;;;11.78;100.00
11343;BME280;5726;42.160;24.746;2023-05-11T04:49:05;100104.16;;;12.02;100.00
11343;BME280;5726;42.160;24.746;2023-05-11T04:51:31;100108.97;;;12.05;100.00
11343;BME280;5726;42.160;24.746;2023-05-11T04:53:57;100099.47;;;11.85;100.00
11343;BME280;5726;42.160;24.746;2023-05-11T04:56:23;100102.72;;;11.82;100.00
11343;BME280;5726;42.160;24.746;2023-05-11T04:58:48;100104.16;;;12.02;100.00
11343;BME280;5726;42.160;24.746;2023-05-11T05:01:13;100108.06;;;12.15;100.00
11343;BME280;5726;42.160;24.746;2023-05-11T05:03:39;100108.34;;;12.13;100.00
11343;BME280;5726;42.160;24.746;2023-05-11T05:06:04;100109.94;;;12.14;100.00
11343;BME280;5726;42.160;24.746;2023-05-11T05:08:30;100112.28;;;12.21;100.00
11343;BME280;5726;42.160;24.746;2023-05-11T05:10:55;100127.94;;;12.14;100.00
11343;BME280;5726;42.160;24.746;2023-05-11T05:13:20;100116.75;;;12.07;100.00
11343;BME280;5726;42.160;24.746;2023-05-11T05:15:46;100114.41;;;12.24;100.00
11343;BME280;5726;42.160;24.746;2023-05-11T05:18:11;100122.09;;;12.35;100.00
11343;BME280;5726;42.160;24.746;2023-05-11T05:20:37;100110.59;;;12.30;100.00
11343;BME280;5726;42.160;24.746;2023-05-11T05:23:04;100127.34;;;12.22;100.00
11343;BME280;5726;42.160;24.746;2023-05-11T05:25:29;100123.28;;;12.24;100.00
11343;BME280;5726;42.160;24.746;2023-05-11T05:27:55;100127.06;;;12.23;100.00
11343;BME280;5726;42.160;24.746;2023-05-11T05:30:21;100122.81;;;12.17;100.00
11343;BME280;5726;42.160;24.746;2023-05-11T05:32:46;100135.00;;;12.33;100.00
11343;BME280;5726;42.160;24.746;2023-05-11T05:35:11;100115.19;;;12.29;100.00
11343;BME280;5726;42.160;24.746;2023-05-11T05:37:37;100117.22;;;12.37;100.00
11343;BME280;5726;42.160;24.746;2023-05-11T05:40:03;100116.50;;;12.55;100.00
11343;BME280;5726;42.160;24.746;2023-05-11T05:42:29;100113.56;;;12.75;100.00
11343;BME280;5726;42.160;24.746;2023-05-11T05:44:55;100128.25;;;12.87;100.00
11343;BME280;5726;42.160;24.746;2023-05-11T05:47:20;100126.28;;;12.92;100.00
11343;BME280;5726;42.160;24.746;2023-05-11T05:49:46;100124.81;;;13.23;100.00
11343;BME280;5726;42.160;24.746;2023-05-11T05:52:11;100133.38;;;13.25;100.00
11343;BME280;5726;42.160;24.746;2023-05-11T05:54:36;100139.13;;;13.19;99.51
11343;BME280;5726;42.160;24.746;2023-05-11T05:57:02;100154.22;;;13.20;99.30
11343;BME280;5726;42.160;24.746;2023-05-11T05:59:27;100157.66;;;12.79;100.00
11343;BME280;5726;42.160;24.746;2023-05-11T06:01:53;100147.38;;;12.34;100.00
11343;BME280;5726;42.160;24.746;2023-05-11T06:04:18;100150.41;;;12.51;100.00
11343;BME280;5726;42.160;24.746;2023-05-11T06:06:44;100146.59;;;12.57;100.00
11343;BME280;5726;42.160;24.746;2023-05-11T06:09:10;100151.28;;;12.70;100.00
11343;BME280;5726;42.160;24.746;2023-05-11T06:11:36;100137.78;;;12.75;100.00
11343;BME280;5726;42.160;24.746;2023-05-11T06:14:02;100144.47;;;12.77;100.00
11343;BME280;5726;42.160;24.746;2023-05-11T06:16:28;100141.69;;;12.64;100.00
11343;BME280;5726;42.160;24.746;2023-05-11T06:18:53;100141.50;;;12.79;100.00
11343;BME280;5726;42.160;24.746;2023-05-11T06:21:18;100142.09;;;12.99;100.00
11343;BME280;5726;42.160;24.746;2023-05-11T06:23:44;100142.25;;;13.07;100.00
11343;BME280;5726;42.160;24.746;2023-05-11T06:26:09;100136.53;;;12.90;100.00
11343;BME280;5726;42.160;24.746;2023-05-11T06:28:35;100152.03;;;12.98;98.99
11343;BME280;5726;42.160;24.746;2023-05-11T06:31:01;100141.16;;;13.08;98.24
11343;BME280;5726;42.160;24.746;2023-05-11T06:33:28;100153.75;;;13.13;98.12
11343;BME280;5726;42.160;24.746;2023-05-11T06:35:53;100133.44;;;13.20;95.45
11343;BME280;5726;42.160;24.746;2023-05-11T06:38:19;100134.50;;;13.24;94.42
11343;BME280;5726;42.160;24.746;2023-05-11T06:40:44;100136.31;;;13.29;94.83
11343;BME280;5726;42.160;24.746;2023-05-11T06:43:10;100143.84;;;13.08;94.10
11343;BME280;5726;42.160;24.746;2023-05-11T06:45:35;100137.47;;;13.23;93.35
11343;BME280;5726;42.160;24.746;2023-05-11T06:48:02;100143.88;;;13.45;93.82
11343;BME280;5726;42.160;24.746;2023-05-11T06:50:27;100145.25;;;13.61;95.61
11343;BME280;5726;42.160;24.746;2023-05-11T06:52:53;100155.16;;;13.84;91.80
11343;BME280;5726;42.160;24.746;2023-05-11T06:55:19;100143.28;;;14.16;89.81
11343;BME280;5726;42.160;24.746;2023-05-11T06:57:44;100147.25;;;14.05;92.31
11343;BME280;5726;42.160;24.746;2023-05-11T07:00:10;100144.72;;;14.27;89.32
11343;BME280;5726;42.160;24.746;2023-05-11T07:02:36;100139.69;;;14.07;90.86
11343;BME280;5726;42.160;24.746;2023-05-11T07:05:01;100137.28;;;14.06;91.11
11343;BME280;5726;42.160;24.746;2023-05-11T07:07:26;100145.19;;;13.97;90.57
11343;BME280;5726;42.160;24.746;2023-05-11T07:09:52;100139.03;;;13.79;90.36
11343;BME280;5726;42.160;24.746;2023-05-11T07:12:17;100122.78;;;13.84;90.67
11343;BME280;5726;42.160;24.746;2023-05-11T07:14:43;100135.59;;;13.91;89.98
11343;BME280;5726;42.160;24.746;2023-05-11T07:17:08;100128.81;;;13.94;91.86
11343;BME280;5726;42.160;24.746;2023-05-11T07:19:33;100138.06;;;14.06;90.72
11343;BME280;5726;42.160;24.746;2023-05-11T07:21:59;100120.84;;;14.02;88.99
11343;BME280;5726;42.160;24.746;2023-05-11T07:24:26;100125.94;;;14.22;89.18
11343;BME280;5726;42.160;24.746;2023-05-11T07:26:51;100134.69;;;14.14;86.09
11343;BME280;5726;42.160;24.746;2023-05-11T07:29:16;100137.94;;;14.43;83.62
11343;BME280;5726;42.160;24.746;2023-05-11T07:31:42;100122.56;;;14.70;84.01
11343;BME280;5726;42.160;24.746;2023-05-11T07:34:08;100147.88;;;14.87;81.77
11343;BME280;5726;42.160;24.746;2023-05-11T07:36:33;100140.56;;;14.75;82.81
11343;BME280;5726;42.160;24.746;2023-05-11T07:38:59;100131.38;;;14.49;85.70
11343;BME280;5726;42.160;24.746;2023-05-11T07:41:26;100136.16;;;14.52;84.64
11343;BME280;5726;42.160;24.746;2023-05-11T07:43:55;100135.31;;;14.38;86.18
11343;BME280;5726;42.160;24.746;2023-05-11T07:46:20;100136.75;;;14.49;86.13
11343;BME280;5726;42.160;24.746;2023-05-11T07:48:46;100127.16;;;14.56;85.42
11343;BME280;5726;42.160;24.746;2023-05-11T07:51:12;100127.06;;;14.75;85.61
11343;BME280;5726;42.160;24.746;2023-05-11T07:53:37;100141.06;;;14.77;85.39
11343;BME280;5726;42.160;24.746;2023-05-11T07:56:03;100128.25;;;14.69;85.63
11343;BME280;5726;42.160;24.746;2023-05-11T07:58:29;100118.56;;;14.68;87.23
11343;BME280;5726;42.160;24.746;2023-05-11T08:00:55;100128.56;;;14.94;86.57
11343;BME280;5726;42.160;24.746;2023-05-11T08:03:21;100123.56;;;15.01;86.41
11343;BME280;5726;42.160;24.746;2023-05-11T08:05:46;100139.78;;;14.74;86.92
11343;BME280;5726;42.160;24.746;2023-05-11T08:08:12;100129.28;;;14.59;88.33
11343;BME280;5726;42.160;24.746;2023-05-11T08:10:37;100124.50;;;14.25;89.72
11343;BME280;5726;42.160;24.746;2023-05-11T08:13:03;100135.81;;;14.27;90.51
11343;BME280;5726;42.160;24.746;2023-05-11T08:15:28;100124.75;;;14.41;89.14
11343;BME280;5726;42.160;24.746;2023-05-11T08:17:54;100126.34;;;14.56;86.91
11343;BME280;5726;42.160;24.746;2023-05-11T08:20:19;100127.00;;;14.21;89.01
11343;BME280;5726;42.160;24.746;2023-05-11T08:22:45;100149.69;;;14.20;88.83
11343;BME280;5726;42.160;24.746;2023-05-11T08:25:10;100125.69;;;14.19;88.97
11343;BME280;5726;42.160;24.746;2023-05-11T08:27:36;100143.72;;;14.36;88.60
11343;BME280;5726;42.160;24.746;2023-05-11T08:30:02;100124.97;;;14.58;88.03
11343;BME280;5726;42.160;24.746;2023-05-11T08:32:27;100125.88;;;14.67;87.05
11343;BME280;5726;42.160;24.746;2023-05-11T08:34:53;100146.34;;;14.55;87.14
11343;BME280;5726;42.160;24.746;2023-05-11T08:37:19;100132.44;;;14.34;87.23
11343;BME280;5726;42.160;24.746;2023-05-11T08:39:44;100134.06;;;14.49;87.71
11343;BME280;5726;42.160;24.746;2023-05-11T08:42:11;100117.03;;;14.35;87.98
11343;BME280;5726;42.160;24.746;2023-05-11T08:44:41;100124.78;;;14.55;87.02
11343;BME280;5726;42.160;24.746;2023-05-11T08:47:07;100125.66;;;14.90;86.21
11343;BME280;5726;42.160;24.746;2023-05-11T08:49:33;100126.63;;;14.94;85.34
11343;BME280;5726;42.160;24.746;2023-05-11T08:52:03;100116.66;;;15.08;84.70
11343;BME280;5726;42.160;24.746;2023-05-11T08:54:28;100124.75;;;15.08;85.12
11343;BME280;5726;42.160;24.746;2023-05-11T08:56:55;100118.22;;;15.09;85.35
11343;BME280;5726;42.160;24.746;2023-05-11T08:59:22;100135.34;;;15.18;84.01
11343;BME280;5726;42.160;24.746;2023-05-11T09:01:50;100121.75;;;14.96;85.85
11343;BME280;5726;42.160;24.746;2023-05-11T09:04:17;100123.13;;;15.07;83.72
11343;BME280;5726;42.160;24.746;2023-05-11T09:06:44;100115.94;;;15.03;84.40
11343;BME280;5726;42.160;24.746;2023-05-11T09:09:09;100115.53;;;15.09;84.02
11343;BME280;5726;42.160;24.746;2023-05-11T09:11:35;100119.00;;;15.23;83.56
11343;BME280;5726;42.160;24.746;2023-05-11T09:14:01;100118.91;;;15.28;83.18
11343;BME280;5726;42.160;24.746;2023-05-11T09:16:26;100126.28;;;15.36;82.53
11343;BME280;5726;42.160;24.746;2023-05-11T09:18:52;100106.50;;;15.27;82.57
11343;BME280;5726;42.160;24.746;2023-05-11T09:21:23;100112.66;;;15.41;81.38
11343;BME280;5726;42.160;24.746;2023-05-11T09:23:49;100101.38;;;15.39;81.38
11343;BME280;5726;42.160;24.746;2023-05-11T09:26:19;100101.41;;;15.61;80.78
11343;BME280;5726;42.160;24.746;2023-05-11T09:29:02;100097.47;;;15.67;80.64
11343;BME280;5726;42.160;24.746;2023-05-11T09:31:44;100090.19;;;15.54;81.14
11343;BME280;5726;42.160;24.746;2023-05-11T09:34:18;100088.75;;;15.70;80.72
11343;BME280;5726;42.160;24.746;2023-05-11T09:36:45;100076.88;;;15.79;79.46
11343;BME280;5726;42.160;24.746;2023-05-11T09:39:12;100078.66;;;15.83;80.11
11343;BME280;5726;42.160;24.746;2023-05-11T09:41:38;100080.72;;;16.08;79.16
11343;BME280;5726;42.160;24.746;2023-05-11T09:44:11;100084.66;;;16.02;78.66
11343;BME280;5726;42.160;24.746;2023-05-11T09:46:38;100089.31;;;15.88;79.75
11343;BME280;5726;42.160;24.746;2023-05-11T09:49:04;100073.94;;;15.97;79.35
11343;BME280;5726;42.160;24.746;2023-05-11T09:51:32;100070.22;;;16.15;79.17
11343;BME280;5726;42.160;24.746;2023-05-11T09:53:59;100072.25;;;16.31;78.50
11343;BME280;5726;42.160;24.746;2023-05-11T09:56:48;100062.75;;;16.42;76.94
11343;BME280;5726;42.160;24.746;2023-05-11T09:59:37;100080.03;;;16.63;75.77
11343;BME280;5726;42.160;24.746;2023-05-11T10:02:30;100080.81;;;16.25;76.93
11343;BME280;5726;42.160;24.746;2023-05-11T10:04:57;100072.91;;;16.37;76.42
11343;BME280;5726;42.160;24.746;2023-05-11T10:07:33;100062.66;;;16.56;75.95
11343;BME280;5726;42.160;24.746;2023-05-11T10:10:02;100072.88;;;16.28;76.60
11343;BME280;5726;42.160;24.746;2023-05-11T10:12:28;100072.91;;;16.37;75.57
11343;BME280;5726;42.160;24.746;2023-05-11T10:15:08;100059.34;;;16.28;77.07
11343;BME280;5726;42.160;24.746;2023-05-11T10:17:34;100061.41;;;16.23;77.04
11343;BME280;5726;42.160;24.746;2023-05-11T10:20:02;100049.03;;;16.39;76.86
11343;BME280;5726;42.160;24.746;2023-05-11T10:22:28;100057.94;;;16.31;76.41
11343;BME280;5726;42.160;24.746;2023-05-11T10:24:56;100042.47;;;16.31;77.71
11343;BME280;5726;42.160;24.746;2023-05-11T10:27:22;100044.81;;;16.55;76.31
11343;BME280;5726;42.160;24.746;2023-05-11T10:29:48;100039.19;;;16.43;76.36
11343;BME280;5726;42.160;24.746;2023-05-11T10:32:15;100037.59;;;16.42;76.49
11343;BME280;5726;42.160;24.746;2023-05-11T10:34:43;100035.53;;;16.47;75.93
11343;BME280;5726;42.160;24.746;2023-05-11T10:37:09;100034.88;;;16.42;76.37
11343;BME280;5726;42.160;24.746;2023-05-11T10:39:38;100031.78;;;16.65;75.33
11343;BME280;5726;42.160;24.746;2023-05-11T10:42:32;100030.34;;;16.68;75.16
11343;BME280;5726;42.160;24.746;2023-05-11T10:45:19;100048.53;;;16.75;75.42
11343;BME280;5726;42.160;24.746;2023-05-11T10:50:51;100035.44;;;16.69;74.81
11343;BME280;5726;42.160;24.746;2023-05-11T10:54:19;100040.06;;;16.60;75.05
11343;BME280;5726;42.160;24.746;2023-05-11T11:01:58;100033.38;;;16.74;74.13
11343;BME280;5726;42.160;24.746;2023-05-11T11:04:40;100021.41;;;16.59;75.27
11343;BME280;5726;42.160;24.746;2023-05-11T11:07:06;100038.31;;;16.73;74.99
11343;BME280;5726;42.160;24.746;2023-05-11T11:09:54;100031.34;;;16.88;74.10
11343;BME280;5726;42.160;24.746;2023-05-11T11:12:22;100020.50;;;16.97;74.38
11343;BME280;5726;42.160;24.746;2023-05-11T11:15:03;100015.25;;;17.00;72.11
11343;BME280;5726;42.160;24.746;2023-05-11T11:17:34;100014.44;;;17.00;72.01
11343;BME280;5726;42.160;24.746;2023-05-11T11:20:02;100014.47;;;17.25;71.97
11343;BME280;5726;42.160;24.746;2023-05-11T11:25:07;100006.81;;;17.44;71.70
11343;BME280;5726;42.160;24.746;2023-05-11T11:30:24;99996.91;;;17.65;72.45
11343;BME280;5726;42.160;24.746;2023-05-11T11:38:07;99982.69;;;17.76;69.39
11343;BME280;5726;42.160;24.746;2023-05-11T11:40:41;99985.66;;;17.91;69.22
11343;BME280;5726;42.160;24.746;2023-05-11T11:43:14;99982.28;;;18.03;69.09
11343;BME280;5726;42.160;24.746;2023-05-11T11:45:51;99969.28;;;18.25;67.84
11343;BME280;5726;42.160;24.746;2023-05-11T11:50:48;99971.00;;;18.29;67.32
11343;BME280;5726;42.160;24.746;2023-05-11T12:01:06;99969.94;;;18.05;67.04
11343;BME280;5726;42.160;24.746;2023-05-11T12:03:35;99955.69;;;17.79;68.61
11343;BME280;5726;42.160;24.746;2023-05-11T12:06:06;99953.94;;;17.83;68.37
11343;BME280;5726;42.160;24.746;2023-05-11T12:08:32;99959.34;;;17.83;68.59
11343;BME280;5726;42.160;24.746;2023-05-11T12:11:01;99960.16;;;17.75;68.56
11343;BME280;5726;42.160;24.746;2023-05-11T12:13:27;99948.28;;;17.60;69.53
11343;BME280;5726;42.160;24.746;2023-05-11T12:16:13;99933.66;;;17.89;68.83
11343;BME280;5726;42.160;24.746;2023-05-11T12:18:40;99942.91;;;17.88;68.66
11343;BME280;5726;42.160;24.746;2023-05-11T12:21:06;99933.16;;;17.87;67.72
11343;BME280;5726;42.160;24.746;2023-05-11T12:23:31;99937.59;;;17.92;67.17
11343;BME280;5726;42.160;24.746;2023-05-11T12:26:04;99926.06;;;18.03;67.04
11343;BME280;5726;42.160;24.746;2023-05-11T12:28:29;99922.38;;;18.16;66.55
11343;BME280;5726;42.160;24.746;2023-05-11T12:30:55;99920.84;;;17.98;66.67
11343;BME280;5726;42.160;24.746;2023-05-11T12:33:21;99920.13;;;18.18;66.20
11343;BME280;5726;42.160;24.746;2023-05-11T12:35:54;99922.56;;;18.40;66.01
11343;BME280;5726;42.160;24.746;2023-05-11T12:38:21;99914.44;;;18.31;65.92
11343;BME280;5726;42.160;24.746;2023-05-11T12:40:47;99916.63;;;18.09;66.50
11343;BME280;5726;42.160;24.746;2023-05-11T12:43:20;99909.81;;;17.95;66.47
11343;BME280;5726;42.160;24.746;2023-05-11T12:45:47;99915.44;;;18.27;66.46
11343;BME280;5726;42.160;24.746;2023-05-11T12:48:13;99908.16;;;18.19;65.32
11343;BME280;5726;42.160;24.746;2023-05-11T12:50:43;99902.81;;;18.31;64.66
11343;BME280;5726;42.160;24.746;2023-05-11T12:53:17;99891.81;;;18.48;64.88
11343;BME280;5726;42.160;24.746;2023-05-11T12:55:43;99882.16;;;18.38;66.06
11343;BME280;5726;42.160;24.746;2023-05-11T12:58:11;99891.13;;;18.30;65.93
11343;BME280;5726;42.160;24.746;2023-05-11T13:03:26;99874.63;;;18.15;66.30
11343;BME280;5726;42.160;24.746;2023-05-11T13:06:11;99875.56;;;18.19;66.36
11343;BME280;5726;42.160;24.746;2023-05-11T13:08:38;99886.84;;;18.29;65.31
11343;BME280;5726;42.160;24.746;2023-05-11T13:11:24;99875.81;;;18.26;64.32
11343;BME280;5726;42.160;24.746;2023-05-11T13:13:55;99886.22;;;18.24;64.72
11343;BME280;5726;42.160;24.746;2023-05-11T13:16:28;99867.44;;;18.39;64.31
11343;BME280;5726;42.160;24.746;2023-05-11T13:19:02;99870.88;;;18.48;64.11
11343;BME280;5726;42.160;24.746;2023-05-11T13:21:29;99868.69;;;18.42;64.43
11343;BME280;5726;42.160;24.746;2023-05-11T13:23:55;99865.00;;;18.67;64.60
11343;BME280;5726;42.160;24.746;2023-05-11T13:26:24;99877.31;;;18.84;64.44
11343;BME280;5726;42.160;24.746;2023-05-11T13:28:51;99873.03;;;18.95;61.64
11343;BME280;5726;42.160;24.746;2023-05-11T13:31:16;99873.91;;;18.47;62.54